sensor_id;sensor_type;location;lat;lon;timestamp;pressure;altitude;pressure_sealevel;temperature;humidity
7524;BME280;3803;51.666;7.630;2024-02-15T00:00:06;101109.38;;;17.05;60.17
7524;BME280;3803;51.666;7.630;2024-02-15T00:00:41;101119.97;;;17.08;60.26
7524;BME280;3803;51.666;7.630;2024-02-15T00:01:08;101108.44;;;16.96;60.19
7524;BME280;3803;51.666;7.630;2024-02-15T00:01:31;101111.06;;;16.96;60.20
7524;BME280;3803;51.666;7.630;2024-02-15T00:01:52;101110.22;;;16.96;60.33
7524;BME280;3803;51.666;7.630;2024-02-15T00:02:19;101104.06;;;16.97;60.51
7524;BME280;3803;51.666;7.630;2024-02-15T00:02:44;101111.97;;;16.98;60.47
7524;BME280;3803;51.666;7.630;2024-02-15T00:03:28;101127.00;;;17.12;60.29
7524;BME280;3803;51.666;7.630;2024-02-15T00:19:35;101118.88;;;16.81;60.67
7524;BME280;3803;51.666;7.630;2024-02-15T00:20:11;101118.91;;;16.82;60.68
7524;BME280;3803;51.666;7.630;2024-02-15T00:24:42;101129.41;;;16.81;60.72
7524;BME280;3803;51.666;7.630;2024-02-15T00:25:10;101125.88;;;16.79;60.61
7524;BME280;3803;51.666;7.630;2024-02-15T00:25:45;101120.59;;;16.77;60.62
7524;BME280;3803;51.666;7.630;2024-02-15T00:26:06;101117.97;;;16.77;60.60
7524;BME280;3803;51.666;7.630;2024-02-15T00:26:29;101132.97;;;16.86;60.62
7524;BME280;3803;51.666;7.630;2024-02-15T00:26:55;101117.97;;;16.79;60.64
7524;BME280;3803;51.666;7.630;2024-02-15T00:27:20;101114.47;;;16.80;60.63
7524;BME280;3803;51.666;7.630;2024-02-15T00:27:41;101120.63;;;16.79;60.53
7524;BME280;3803;51.666;7.630;2024-02-15T00:28:13;101117.94;;;16.74;60.63
7524;BME280;3803;51.666;7.630;2024-02-15T00:28:46;101136.44;;;16.79;61.04
7524;BME280;3803;51.666;7.630;2024-02-15T00:29:18;101115.31;;;16.76;60.64
7524;BME280;3803;51.666;7.630;2024-02-15T00:30:06;101117.94;;;16.74;60.79
7524;BME280;3803;51.666;7.630;2024-02-15T00:31:50;101116.22;;;16.78;60.59
7524;BME280;3803;51.666;7.630;2024-02-15T00:32:37;101138.22;;;16.84;60.74
7524;BME280;3803;51.666;7.630;2024-02-15T00:36:11;101113.59;;;16.81;60.49
7524;BME280;3803;51.666;7.630;2024-02-15T00:40:53;101131.19;;;16.83;60.67
7524;BME280;3803;51.666;7.630;2024-02-15T00:45:36;101132.00;;;16.76;60.81
7524;BME280;3803;51.666;7.630;2024-02-15T01:14:53;101132.84;;;16.70;60.94
7524;BME280;3803;51.666;7.630;2024-02-15T01:15:27;101147.00;;;16.82;60.68
7524;BME280;3803;51.666;7.630;2024-02-15T01:20:42;101141.66;;;16.72;60.54
7524;BME280;3803;51.666;7.630;2024-02-15T01:21:17;101146.97;;;16.79;60.64
7524;BME280;3803;51.666;7.630;2024-02-15T01:21:50;101141.72;;;16.82;60.69
7524;BME280;3803;51.666;7.630;2024-02-15T01:23:04;101154.97;;;16.91;60.60
7524;BME280;3803;51.666;7.630;2024-02-15T01:27:52;101133.81;;;16.80;60.72
7524;BME280;3803;51.666;7.630;2024-02-15T01:28:14;101132.03;;;16.81;60.53
7524;BME280;3803;51.666;7.630;2024-02-15T01:28:46;101131.16;;;16.82;60.40
7524;BME280;3803;51.666;7.630;2024-02-15T01:45:06;101135.66;;;16.94;60.52
7524;BME280;3803;51.666;7.630;2024-02-15T01:45:58;101122.38;;;16.80;60.57
7524;BME280;3803;51.666;7.630;2024-02-15T01:46:41;101140.00;;;16.87;60.68
7524;BME280;3803;51.666;7.630;2024-02-15T01:47:10;101119.81;;;16.86;60.57
7524;BME280;3803;51.666;7.630;2024-02-15T01:47:47;101133.00;;;16.89;60.47
7524;BME280;3803;51.666;7.630;2024-02-15T01:48:55;101125.00;;;16.78;60.41
7524;BME280;3803;51.666;7.630;2024-02-15T01:49:21;101115.31;;;16.76;60.43
7524;BME280;3803;51.666;7.630;2024-02-15T01:49:43;101140.84;;;16.81;60.73
7524;BME280;3803;51.666;7.630;2024-02-15T01:50:10;101128.47;;;16.72;60.74
7524;BME280;3803;51.666;7.630;2024-02-15T01:50:32;101125.84;;;16.72;60.85
7524;BME280;3803;51.666;7.630;2024-02-15T01:51:13;101123.22;;;16.76;60.95
7524;BME280;3803;51.666;7.630;2024-02-15T01:55:37;101126.72;;;16.71;60.81
7524;BME280;3803;51.666;7.630;2024-02-15T02:06:40;101134.81;;;16.99;60.54
7524;BME280;3803;51.666;7.630;2024-02-15T02:08:53;101118.94;;;16.90;60.45
7524;BME280;3803;51.666;7.630;2024-02-15T02:15:58;101128.66;;;16.94;60.47
7524;BME280;3803;51.666;7.630;2024-02-15T02:17:13;101103.97;;;16.88;60.28
7524;BME280;3803;51.666;7.630;2024-02-15T02:18:01;101110.16;;;16.91;60.34
7524;BME280;3803;51.666;7.630;2024-02-15T02:19:03;101118.97;;;16.93;60.31
7524;BME280;3803;51.666;7.630;2024-02-15T02:23:28;101108.44;;;16.93;60.45
7524;BME280;3803;51.666;7.630;2024-02-15T02:24:08;101100.47;;;16.87;60.36
7524;BME280;3803;51.666;7.630;2024-02-15T02:25:01;101105.75;;;16.87;60.26
7524;BME280;3803;51.666;7.630;2024-02-15T02:33:21;101108.50;;;17.03;60.61
7524;BME280;3803;51.666;7.630;2024-02-15T02:37:49;101100.47;;;16.84;60.60
7524;BME280;3803;51.666;7.630;2024-02-15T02:38:35;101094.31;;;16.88;60.56
7524;BME280;3803;51.666;7.630;2024-02-15T02:42:28;101101.41;;;16.98;60.26
7524;BME280;3803;51.666;7.630;2024-02-15T02:43:05;101102.31;;;16.96;60.23
7524;BME280;3803;51.666;7.630;2024-02-15T02:43:56;101097.84;;;16.90;60.36
7524;BME280;3803;51.666;7.630;2024-02-15T02:44:35;101119.06;;;17.04;60.36
7524;BME280;3803;51.666;7.630;2024-02-15T02:45:22;101095.22;;;16.92;60.34
7524;BME280;3803;51.666;7.630;2024-02-15T02:46:05;101094.31;;;16.88;60.23
7524;BME280;3803;51.666;7.630;2024-02-15T02:46:50;101116.38;;;16.98;60.49
7524;BME280;3803;51.666;7.630;2024-02-15T02:47:14;101096.97;;;16.88;60.62
7524;BME280;3803;51.666;7.630;2024-02-15T02:48:14;101093.50;;;16.92;60.57
7524;BME280;3803;51.666;7.630;2024-02-15T02:57:44;101086.44;;;16.93;60.21
7524;BME280;3803;51.666;7.630;2024-02-15T02:58:40;101110.25;;;17.05;60.16
7524;BME280;3803;51.666;7.630;2024-02-15T03:07:44;101104.91;;;16.94;60.26
7524;BME280;3803;51.666;7.630;2024-02-15T03:12:21;101106.72;;;17.03;60.21
7524;BME280;3803;51.666;7.630;2024-02-15T03:13:13;101083.81;;;16.94;60.12
7524;BME280;3803;51.666;7.630;2024-02-15T03:14:22;101084.72;;;16.96;60.12
7524;BME280;3803;51.666;7.630;2024-02-15T03:15:16;101084.72;;;16.99;60.14
7524;BME280;3803;51.666;7.630;2024-02-15T03:15:48;101077.69;;;16.95;59.97
7524;BME280;3803;51.666;7.630;2024-02-15T03:16:26;101084.72;;;16.96;60.05
7524;BME280;3803;51.666;7.630;2024-02-15T03:17:07;101080.31;;;16.92;60.18
7524;BME280;3803;51.666;7.630;2024-02-15T03:17:52;101077.66;;;16.92;59.88
7524;BME280;3803;51.666;7.630;2024-02-15T03:18:42;101079.41;;;16.89;60.21
7524;BME280;3803;51.666;7.630;2024-02-15T03:19:23;101078.53;;;16.90;60.08
7524;BME280;3803;51.666;7.630;2024-02-15T03:20:14;101100.56;;;17.01;60.08
7524;BME280;3803;51.666;7.630;2024-02-15T03:20:46;101075.03;;;16.92;60.19
7524;BME280;3803;51.666;7.630;2024-02-15T03:21:14;101086.50;;;17.02;60.23
7524;BME280;3803;51.666;7.630;2024-02-15T03:21:47;101081.16;;;16.90;60.20
7524;BME280;3803;51.666;7.630;2024-02-15T03:22:29;101076.75;;;16.90;60.19
7524;BME280;3803;51.666;7.630;2024-02-15T03:23:17;101074.13;;;16.89;60.12
7524;BME280;3803;51.666;7.630;2024-02-15T03:25:35;101068.81;;;16.85;60.21
7524;BME280;3803;51.666;7.630;2024-02-15T03:26:31;101089.97;;;16.96;60.32
7524;BME280;3803;51.666;7.630;2024-02-15T03:27:37;101073.22;;;16.83;60.14
7524;BME280;3803;51.666;7.630;2024-02-15T03:28:26;101074.13;;;16.89;60.23
7524;BME280;3803;51.666;7.630;2024-02-15T03:30:01;101070.56;;;16.83;60.33
7524;BME280;3803;51.666;7.630;2024-02-15T03:30:44;101076.75;;;16.87;60.21
7524;BME280;3803;51.666;7.630;2024-02-15T03:31:56;101060.00;;;16.82;60.33
7524;BME280;3803;51.666;7.630;2024-02-15T03:34:03;101076.78;;;16.93;60.14
7524;BME280;3803;51.666;7.630;2024-02-15T03:34:55;101061.78;;;16.81;60.18
7524;BME280;3803;51.666;7.630;2024-02-15T03:35:59;101075.03;;;16.92;60.27
7524;BME280;3803;51.666;7.630;2024-02-15T03:45:16;101070.59;;;16.85;59.95
7524;BME280;3803;51.666;7.630;2024-02-15T03:46:09;101083.81;;;16.94;59.97
7524;BME280;3803;51.666;7.630;2024-02-15T03:46:58;101074.03;;;16.79;60.03
7524;BME280;3803;51.666;7.630;2024-02-15T03:52:42;101075.88;;;16.88;60.06
7524;BME280;3803;51.666;7.630;2024-02-15T03:53:57;101074.09;;;16.85;59.92
7524;BME280;3803;51.666;7.630;2024-02-15T03:55:25;101078.47;;;16.82;60.34
7524;BME280;3803;51.666;7.630;2024-02-15T03:56:46;101071.47;;;16.87;60.33
7524;BME280;3803;51.666;7.630;2024-02-15T03:58:05;101069.72;;;16.86;60.12
7524;BME280;3803;51.666;7.630;2024-02-15T03:59:26;101061.78;;;16.88;60.15
7524;BME280;3803;51.666;7.630;2024-02-15T04:13:25;101052.13;;;16.80;60.16
7524;BME280;3803;51.666;7.630;2024-02-15T04:14:17;101062.69;;;16.85;60.27
7524;BME280;3803;51.666;7.630;2024-02-15T04:21:10;101065.31;;;16.85;60.46
7524;BME280;3803;51.666;7.630;2024-02-15T04:27:00;101072.41;;;16.95;60.30
7524;BME280;3803;51.666;7.630;2024-02-15T04:29:07;101082.16;;;17.09;60.37
7524;BME280;3803;51.666;7.630;2024-02-15T04:34:09;101065.41;;;17.01;60.24
7524;BME280;3803;51.666;7.630;2024-02-15T04:35:52;101074.25;;;17.07;60.28
7524;BME280;3803;51.666;7.630;2024-02-15T04:36:28;101070.66;;;16.99;60.03
7524;BME280;3803;51.666;7.630;2024-02-15T04:37:20;101061.88;;;16.95;60.08
7524;BME280;3803;51.666;7.630;2024-02-15T04:38:03;101060.13;;;16.96;60.14
7524;BME280;3803;51.666;7.630;2024-02-15T04:38:55;101063.63;;;16.96;60.04
7524;BME280;3803;51.666;7.630;2024-02-15T04:49:30;101068.00;;;16.97;60.48
7524;BME280;3803;51.666;7.630;2024-02-15T04:50:17;101063.66;;;16.98;60.28
7524;BME280;3803;51.666;7.630;2024-02-15T04:51:10;101071.53;;;16.99;60.32
7524;BME280;3803;51.666;7.630;2024-02-15T04:57:30;101064.56;;;17.05;60.08
7524;BME280;3803;51.666;7.630;2024-02-15T04:58:13;101072.50;;;17.14;60.22
7524;BME280;3803;51.666;7.630;2024-02-15T04:58:44;101057.50;;;17.04;59.94
7524;BME280;3803;51.666;7.630;2024-02-15T04:59:43;101055.75;;;17.03;60.02
7524;BME280;3803;51.666;7.630;2024-02-15T05:00:51;101050.50;;;17.04;60.20
7524;BME280;3803;51.666;7.630;2024-02-15T05:02:01;101044.34;;;17.05;60.05
7524;BME280;3803;51.666;7.630;2024-02-15T05:02:43;101039.91;;;16.98;59.95
7524;BME280;3803;51.666;7.630;2024-02-15T05:03:32;101045.22;;;17.03;59.98
7524;BME280;3803;51.666;7.630;2024-02-15T05:04:13;101046.06;;;16.98;60.21
7524;BME280;3803;51.666;7.630;2024-02-15T05:04:48;101043.44;;;17.02;60.07
7524;BME280;3803;51.666;7.630;2024-02-15T05:06:43;101039.91;;;16.96;60.07
7524;BME280;3803;51.666;7.630;2024-02-15T05:07:58;101059.28;;;17.06;60.10
7524;BME280;3803;51.666;7.630;2024-02-15T05:08:52;101041.69;;;17.04;60.20
7524;BME280;3803;51.666;7.630;2024-02-15T05:13:49;101039.91;;;16.99;60.32
7524;BME280;3803;51.666;7.630;2024-02-15T05:14:22;101047.84;;;17.03;60.13
7524;BME280;3803;51.666;7.630;2024-02-15T05:14:49;101054.00;;;17.02;60.11
7524;BME280;3803;51.666;7.630;2024-02-15T05:15:30;101036.41;;;16.99;60.17
7524;BME280;3803;51.666;7.630;2024-02-15T05:15:59;101047.81;;;17.01;60.20
7524;BME280;3803;51.666;7.630;2024-02-15T05:16:30;101039.91;;;16.99;60.26
7524;BME280;3803;51.666;7.630;2024-02-15T05:16:55;101048.75;;;17.08;60.50
7524;BME280;3803;51.666;7.630;2024-02-15T05:17:40;101051.34;;;17.03;60.10
7524;BME280;3803;51.666;7.630;2024-02-15T05:18:10;101052.25;;;17.07;60.10
7524;BME280;3803;51.666;7.630;2024-02-15T05:18:41;101055.78;;;17.07;60.06
7524;BME280;3803;51.666;7.630;2024-02-15T05:19:11;101052.25;;;17.01;60.17
7524;BME280;3803;51.666;7.630;2024-02-15T05:19:37;101037.28;;;16.98;60.01
7524;BME280;3803;51.666;7.630;2024-02-15T05:20:09;101046.06;;;17.00;60.09
7524;BME280;3803;51.666;7.630;2024-02-15T05:21:04;101046.97;;;17.04;60.19
7524;BME280;3803;51.666;7.630;2024-02-15T05:21:45;101042.56;;;17.03;60.12
7524;BME280;3803;51.666;7.630;2024-02-15T05:22:12;101046.09;;;17.02;59.98
7524;BME280;3803;51.666;7.630;2024-02-15T05:22:42;101047.84;;;17.03;60.00
7524;BME280;3803;51.666;7.630;2024-02-15T05:24:06;101043.44;;;17.02;59.93
7524;BME280;3803;51.666;7.630;2024-02-15T05:24:33;101043.47;;;17.05;60.00
7524;BME280;3803;51.666;7.630;2024-02-15T05:25:05;101047.00;;;17.08;60.04
7524;BME280;3803;51.666;7.630;2024-02-15T05:25:35;101041.69;;;17.04;59.93
7524;BME280;3803;51.666;7.630;2024-02-15T05:26:04;101039.91;;;17.01;59.91
7524;BME280;3803;51.666;7.630;2024-02-15T05:26:33;101040.81;;;17.03;59.93
7524;BME280;3803;51.666;7.630;2024-02-15T05:27:05;101056.69;;;17.08;59.97
7524;BME280;3803;51.666;7.630;2024-02-15T05:27:30;101031.09;;;16.94;60.17
7524;BME280;3803;51.666;7.630;2024-02-15T05:28:10;101039.91;;;16.96;60.13
7524;BME280;3803;51.666;7.630;2024-02-15T05:28:38;101043.44;;;17.02;60.23
7524;BME280;3803;51.666;7.630;2024-02-15T05:29:02;101041.69;;;17.01;60.13
7524;BME280;3803;51.666;7.630;2024-02-15T05:29:35;101038.16;;;16.98;60.10
7524;BME280;3803;51.666;7.630;2024-02-15T05:30:00;101038.19;;;17.02;60.04
7524;BME280;3803;51.666;7.630;2024-02-15T05:30:27;101035.53;;;17.00;60.06
7524;BME280;3803;51.666;7.630;2024-02-15T05:31:40;101037.28;;;16.98;59.93
7524;BME280;3803;51.666;7.630;2024-02-15T05:32:13;101029.38;;;16.98;59.74
7524;BME280;3803;51.666;7.630;2024-02-15T05:32:44;101034.63;;;16.96;60.00
7524;BME280;3803;51.666;7.630;2024-02-15T05:33:30;101039.91;;;16.96;59.99
7524;BME280;3803;51.666;7.630;2024-02-15T05:33:54;101035.53;;;16.97;59.89
7524;BME280;3803;51.666;7.630;2024-02-15T05:34:17;101037.25;;;16.93;59.95
7524;BME280;3803;51.666;7.630;2024-02-15T05:34:49;101034.59;;;16.92;59.92
7524;BME280;3803;51.666;7.630;2024-02-15T05:35:11;101033.72;;;16.90;59.95
7524;BME280;3803;51.666;7.630;2024-02-15T05:35:40;101036.34;;;16.91;59.93
7524;BME280;3803;51.666;7.630;2024-02-15T05:36:07;101036.38;;;16.94;60.06
7524;BME280;3803;51.666;7.630;2024-02-15T05:36:36;101041.59;;;16.91;60.02
7524;BME280;3803;51.666;7.630;2024-02-15T05:37:14;101026.66;;;16.85;60.06
7524;BME280;3803;51.666;7.630;2024-02-15T05:37:45;101032.81;;;16.89;60.10
7524;BME280;3803;51.666;7.630;2024-02-15T05:38:14;101046.94;;;16.97;60.01
7524;BME280;3803;51.666;7.630;2024-02-15T05:38:45;101038.09;;;16.89;60.24
7524;BME280;3803;51.666;7.630;2024-02-15T05:39:09;101044.25;;;16.91;60.03
7524;BME280;3803;51.666;7.630;2024-02-15T05:39:39;101046.88;;;16.91;60.06
7524;BME280;3803;51.666;7.630;2024-02-15T05:40:06;101046.03;;;16.95;60.04
7524;BME280;3803;51.666;7.630;2024-02-15T05:45:52;101026.69;;;16.89;60.02
7524;BME280;3803;51.666;7.630;2024-02-15T05:46:19;101024.91;;;16.88;60.16
7524;BME280;3803;51.666;7.630;2024-02-15T05:46:51;101017.88;;;16.85;60.01
7524;BME280;3803;51.666;7.630;2024-02-15T05:47:15;101040.78;;;16.92;60.29
7524;BME280;3803;51.666;7.630;2024-02-15T05:47:41;101019.63;;;16.86;60.15
7524;BME280;3803;51.666;7.630;2024-02-15T05:48:09;101025.78;;;16.91;60.09
7524;BME280;3803;51.666;7.630;2024-02-15T05:48:36;101016.13;;;16.87;60.14
7524;BME280;3803;51.666;7.630;2024-02-15T05:49:12;101018.75;;;16.85;59.88
7524;BME280;3803;51.666;7.630;2024-02-15T05:49:45;101020.53;;;16.88;59.95
7524;BME280;3803;51.666;7.630;2024-02-15T05:50:08;101025.84;;;16.94;60.08
7524;BME280;3803;51.666;7.630;2024-02-15T05:50:32;101027.53;;;16.86;60.18
7524;BME280;3803;51.666;7.630;2024-02-15T05:50:58;101011.72;;;16.84;60.16
7524;BME280;3803;51.666;7.630;2024-02-15T05:51:28;101009.06;;;16.84;60.40
7524;BME280;3803;51.666;7.630;2024-02-15T05:52:01;101004.69;;;16.86;59.94
7524;BME280;3803;51.666;7.630;2024-02-15T05:52:25;101010.00;;;16.90;60.18
7524;BME280;3803;51.666;7.630;2024-02-15T05:52:47;101013.50;;;16.90;60.29
7524;BME280;3803;51.666;7.630;2024-02-15T05:53:14;101006.47;;;16.89;60.03
7524;BME280;3803;51.666;7.630;2024-02-15T05:53:51;101022.34;;;17.02;60.07
7524;BME280;3803;51.666;7.630;2024-02-15T05:54:31;101027.59;;;16.98;60.04
7524;BME280;3803;51.666;7.630;2024-02-15T05:55:00;101002.06;;;16.86;60.07
7524;BME280;3803;51.666;7.630;2024-02-15T05:55:24;101005.59;;;16.89;59.74
7524;BME280;3803;51.666;7.630;2024-02-15T05:55:58;101009.97;;;16.88;59.98
7524;BME280;3803;51.666;7.630;2024-02-15T05:56:24;101004.69;;;16.85;59.94
7524;BME280;3803;51.666;7.630;2024-02-15T05:56:55;101017.88;;;16.88;60.03
7524;BME280;3803;51.666;7.630;2024-02-15T05:57:23;101010.84;;;16.84;60.07
7524;BME280;3803;51.666;7.630;2024-02-15T05:57:47;101012.59;;;16.83;60.20
7524;BME280;3803;51.666;7.630;2024-02-15T05:58:10;101008.19;;;16.81;60.17
7524;BME280;3803;51.666;7.630;2024-02-15T05:58:45;101009.09;;;16.88;60.13
7524;BME280;3803;51.666;7.630;2024-02-15T05:59:09;101009.97;;;16.88;60.17
7524;BME280;3803;51.666;7.630;2024-02-15T05:59:35;101020.53;;;16.91;60.30
7524;BME280;3803;51.666;7.630;2024-02-15T05:59:58;101012.59;;;16.85;60.28
7524;BME280;3803;51.666;7.630;2024-02-15T06:00:27;101025.78;;;16.91;60.21
7524;BME280;3803;51.666;7.630;2024-02-15T06:00:50;101010.84;;;16.85;60.00
7524;BME280;3803;51.666;7.630;2024-02-15T06:01:16;101009.09;;;16.88;60.08
7524;BME280;3803;51.666;7.630;2024-02-15T06:01:45;101021.41;;;16.90;60.02
7524;BME280;3803;51.666;7.630;2024-02-15T06:02:09;101004.72;;;16.88;59.99
7524;BME280;3803;51.666;7.630;2024-02-15T06:06:09;101019.69;;;16.95;59.87
7524;BME280;3803;51.666;7.630;2024-02-15T06:06:59;101014.41;;;16.94;59.82
7524;BME280;3803;51.666;7.630;2024-02-15T06:07:47;101017.03;;;16.92;59.82
7524;BME280;3803;51.666;7.630;2024-02-15T06:08:12;101016.16;;;16.89;59.67
7524;BME280;3803;51.666;7.630;2024-02-15T06:08:36;101024.97;;;16.95;60.11
7524;BME280;3803;51.666;7.630;2024-02-15T06:09:00;101026.72;;;16.96;59.88
7524;BME280;3803;51.666;7.630;2024-02-15T06:09:25;101016.16;;;16.92;59.89
7524;BME280;3803;51.666;7.630;2024-02-15T06:09:50;101014.38;;;16.91;59.88
7524;BME280;3803;51.666;7.630;2024-02-15T06:10:30;101022.31;;;16.95;60.04
7524;BME280;3803;51.666;7.630;2024-02-15T06:10:56;101011.72;;;16.86;59.95
7524;BME280;3803;51.666;7.630;2024-02-15T06:11:22;101018.75;;;16.84;59.95
7524;BME280;3803;51.666;7.630;2024-02-15T06:11:46;101020.47;;;16.82;60.13
7524;BME280;3803;51.666;7.630;2024-02-15T06:12:08;101021.41;;;16.90;60.08
7524;BME280;3803;51.666;7.630;2024-02-15T06:12:32;101017.00;;;16.86;60.24
7524;BME280;3803;51.666;7.630;2024-02-15T06:12:58;101018.75;;;16.87;60.19
7524;BME280;3803;51.666;7.630;2024-02-15T06:13:23;101031.09;;;16.94;60.15
7524;BME280;3803;51.666;7.630;2024-02-15T06:13:49;101009.97;;;16.86;60.13
7524;BME280;3803;51.666;7.630;2024-02-15T06:14:16;101018.75;;;16.90;60.04
7524;BME280;3803;51.666;7.630;2024-02-15T06:14:42;101017.00;;;16.89;60.12
7524;BME280;3803;51.666;7.630;2024-02-15T06:15:05;101024.94;;;16.94;59.97
7524;BME280;3803;51.666;7.630;2024-02-15T06:15:41;101015.25;;;16.88;60.27
7524;BME280;3803;51.666;7.630;2024-02-15T06:16:03;101030.22;;;16.98;59.95
7524;BME280;3803;51.666;7.630;2024-02-15T06:16:44;101032.00;;;16.96;60.04
7524;BME280;3803;51.666;7.630;2024-02-15T06:17:08;101019.69;;;16.92;59.73
7524;BME280;3803;51.666;7.630;2024-02-15T06:17:37;101031.06;;;16.85;60.18
7524;BME280;3803;51.666;7.630;2024-02-15T06:17:58;101018.72;;;16.81;60.21
7524;BME280;3803;51.666;7.630;2024-02-15T06:18:23;101031.09;;;16.94;60.27
7524;BME280;3803;51.666;7.630;2024-02-15T06:18:51;101021.41;;;16.87;60.21
7524;BME280;3803;51.666;7.630;2024-02-15T06:20:27;101041.66;;;16.97;60.34
7524;BME280;3803;51.666;7.630;2024-02-15T06:20:59;101025.78;;;16.88;60.08
7524;BME280;3803;51.666;7.630;2024-02-15T06:22:10;101046.97;;;17.04;60.08
7524;BME280;3803;51.666;7.630;2024-02-15T06:22:48;101043.44;;;17.00;60.20
7524;BME280;3803;51.666;7.630;2024-02-15T06:23:34;101035.50;;;16.98;60.08
7524;BME280;3803;51.666;7.630;2024-02-15T06:27:04;101025.84;;;16.94;59.92
7524;BME280;3803;51.666;7.630;2024-02-15T06:27:41;101037.28;;;16.98;60.04
7524;BME280;3803;51.666;7.630;2024-02-15T06:28:24;101028.44;;;16.93;60.06
7524;BME280;3803;51.666;7.630;2024-02-15T06:29:11;101036.38;;;16.97;60.06
7524;BME280;3803;51.666;7.630;2024-02-15T06:30:14;101041.66;;;16.97;60.03
7524;BME280;3803;51.666;7.630;2024-02-15T06:30:56;101048.69;;;16.97;60.05
7524;BME280;3803;51.666;7.630;2024-02-15T06:31:51;101022.28;;;16.86;60.13
7524;BME280;3803;51.666;7.630;2024-02-15T06:32:33;101032.88;;;16.92;60.06
7524;BME280;3803;51.666;7.630;2024-02-15T06:33:14;101039.91;;;17.01;60.14
7524;BME280;3803;51.666;7.630;2024-02-15T06:34:02;101022.28;;;16.89;60.01
7524;BME280;3803;51.666;7.630;2024-02-15T06:34:48;101042.53;;;16.96;60.17
7524;BME280;3803;51.666;7.630;2024-02-15T06:35:30;101025.84;;;16.96;60.19
7524;BME280;3803;51.666;7.630;2024-02-15T06:36:15;101021.41;;;16.92;60.04
7524;BME280;3803;51.666;7.630;2024-02-15T06:37:09;101024.03;;;16.87;60.16
7524;BME280;3803;51.666;7.630;2024-02-15T06:37:53;101022.31;;;16.92;60.14
7524;BME280;3803;51.666;7.630;2024-02-15T06:38:36;101021.41;;;16.89;59.96
7524;BME280;3803;51.666;7.630;2024-02-15T06:39:18;101017.00;;;16.89;60.33
7524;BME280;3803;51.666;7.630;2024-02-15T06:39:57;101016.16;;;16.92;60.09
7524;BME280;3803;51.666;7.630;2024-02-15T06:40:34;101040.84;;;17.06;60.17
7524;BME280;3803;51.666;7.630;2024-02-15T06:44:42;101039.94;;;17.06;60.09
7524;BME280;3803;51.666;7.630;2024-02-15T06:45:06;101028.50;;;16.99;60.10
7524;BME280;3803;51.666;7.630;2024-02-15T06:45:42;101027.59;;;16.98;59.91
7524;BME280;3803;51.666;7.630;2024-02-15T06:46:14;101040.84;;;17.08;59.97
7524;BME280;3803;51.666;7.630;2024-02-15T06:46:41;101035.53;;;17.00;59.99
7524;BME280;3803;51.666;7.630;2024-02-15T06:47:05;101031.13;;;17.02;60.12
7524;BME280;3803;51.666;7.630;2024-02-15T06:47:29;101037.31;;;17.06;59.96
7524;BME280;3803;51.666;7.630;2024-02-15T06:47:58;101034.66;;;17.06;60.13
7524;BME280;3803;51.666;7.630;2024-02-15T06:48:30;101032.88;;;17.03;59.98
7524;BME280;3803;51.666;7.630;2024-02-15T06:48:56;101040.84;;;17.08;59.92
7524;BME280;3803;51.666;7.630;2024-02-15T06:49:21;101031.16;;;17.04;59.94
7524;BME280;3803;51.666;7.630;2024-02-15T06:49:45;101036.44;;;17.05;60.02
7524;BME280;3803;51.666;7.630;2024-02-15T06:50:14;101037.31;;;17.03;60.07
7524;BME280;3803;51.666;7.630;2024-02-15T06:50:51;101027.59;;;16.98;60.08
7524;BME280;3803;51.666;7.630;2024-02-15T06:51:15;101027.59;;;16.98;59.87
7524;BME280;3803;51.666;7.630;2024-02-15T06:51:50;101034.63;;;16.99;60.05
7524;BME280;3803;51.666;7.630;2024-02-15T06:52:13;101039.94;;;17.03;59.84
7524;BME280;3803;51.666;7.630;2024-02-15T06:52:40;101056.66;;;17.09;60.08
7524;BME280;3803;51.666;7.630;2024-02-15T06:53:05;101046.09;;;17.02;60.04
7524;BME280;3803;51.666;7.630;2024-02-15T06:53:39;101042.53;;;16.96;60.18
7524;BME280;3803;51.666;7.630;2024-02-15T06:54:08;101039.03;;;16.96;60.18
7524;BME280;3803;51.666;7.630;2024-02-15T06:54:58;101055.78;;;17.09;60.21
7524;BME280;3803;51.666;7.630;2024-02-15T07:03:18;101050.31;;;16.73;60.57
7524;BME280;3803;51.666;7.630;2024-02-15T08:04:51;100970.97;;;16.31;61.31
7524;BME280;3803;51.666;7.630;2024-02-15T08:06:16;100959.63;;;16.38;61.31
7524;BME280;3803;51.666;7.630;2024-02-15T08:06:41;100962.25;;;16.41;61.19
7524;BME280;3803;51.666;7.630;2024-02-15T08:10:49;100947.38;;;16.47;61.05
7524;BME280;3803;51.666;7.630;2024-02-15T08:18:34;100971.94;;;16.41;61.42
7524;BME280;3803;51.666;7.630;2024-02-15T08:18:59;100979.81;;;16.42;61.47
7524;BME280;3803;51.666;7.630;2024-02-15T08:19:26;100995.69;;;16.49;61.56
7524;BME280;3803;51.666;7.630;2024-02-15T08:19:47;100983.38;;;16.48;61.21
7524;BME280;3803;51.666;7.630;2024-02-15T08:20:12;100988.63;;;16.44;61.48
7524;BME280;3803;51.666;7.630;2024-02-15T08:21:06;100995.66;;;16.46;61.68
7524;BME280;3803;51.666;7.630;2024-02-15T08:21:37;100984.31;;;16.53;61.62
7524;BME280;3803;51.666;7.630;2024-02-15T08:22:06;101004.50;;;16.55;61.43
7524;BME280;3803;51.666;7.630;2024-02-15T08:22:41;100986.91;;;16.47;61.58
7524;BME280;3803;51.666;7.630;2024-02-15T08:33:03;101006.50;;;16.92;60.73
7524;BME280;3803;51.666;7.630;2024-02-15T08:34:04;100995.97;;;16.92;60.78
7524;BME280;3803;51.666;7.630;2024-02-15T08:35:00;101003.88;;;16.98;60.57
7524;BME280;3803;51.666;7.630;2024-02-15T08:35:46;101009.16;;;17.03;60.50
7524;BME280;3803;51.666;7.630;2024-02-15T08:36:30;101020.66;;;17.15;60.64
7524;BME280;3803;51.666;7.630;2024-02-15T08:37:16;101004.81;;;17.10;60.57
7524;BME280;3803;51.666;7.630;2024-02-15T08:38:06;101004.84;;;17.16;60.39
7524;BME280;3803;51.666;7.630;2024-02-15T08:38:49;101027.78;;;17.30;60.67
7524;BME280;3803;51.666;7.630;2024-02-15T08:39:45;101008.38;;;17.18;60.49
7524;BME280;3803;51.666;7.630;2024-02-15T08:40:34;101004.94;;;17.32;60.58
7524;BME280;3803;51.666;7.630;2024-02-15T08:40:59;101006.69;;;17.30;60.51
7524;BME280;3803;51.666;7.630;2024-02-15T08:41:25;101008.47;;;17.34;60.50
7524;BME280;3803;51.666;7.630;2024-02-15T08:41:52;101019.91;;;17.39;60.66
7524;BME280;3803;51.666;7.630;2024-02-15T08:42:16;100997.03;;;17.38;60.55
7524;BME280;3803;51.666;7.630;2024-02-15T08:42:43;101016.44;;;17.52;60.48